Enter the Airport ICAO Code

Search by Airport or City

Current Weather

SAZM | Astor Piazzolla International Airport

Mar del Plata, Buenos Aires, Argentina

Last Update 34 Minutes Ago

Clear Sky

Temperature of 04 ºC

Light to Moderate Winds from NorthWest

Temperature

04 ºC

Dew Point Temperature

03 ºC

Relative Humidity

93.19 %

Wind Direction

NorthWest (300º, Without Significant Variations)

Wind Velocity

11 km/h (06 kt)

Gusts

None

Visibility

No Significant Reductions

Sea Level Pressure

1028 hPa (Hectopascals)

Layers of Clouds

None

METAR SAZM 191200Z 30006KT CAVOK 04/03 Q1028

Weather Forecast

SAZM | Astor Piazzolla International Airport

Mar del Plata, Buenos Aires, Argentina

Forecast valid for the next 23 Hours

From now on it is expected:

Partly Cloudy Sky

Light to Moderate Winds from NorthWest

In 10 to 13 hours it is expected the begining of:

Mist

Light Winds from Variable Directions

In 21 to 23 hours it is expected the begining of:

Partly Cloudy Sky

Moderate Winds from NorthWest

Maximum Temperature

10 ºC in 5 Hours

Minimum Temperature

02 ºC in 21 Hours

TAF SAZM 191140Z 1912/2012 30005KT 9999 SCT030 TX10/1918Z TN02/2010Z BECMG 1923/2002 VRB03KT 5000 BR OVC010 BECMG 2010/2012 32010KT 9999 NSW SCT030